sensor_id;sensor_type;location;lat;lon;timestamp;temperature;humidity
42743;DHT22;28397;44.552;-0.848;2023-03-21T00:00:59;7.30;99.90
42743;DHT22;28397;44.552;-0.848;2023-03-21T00:03:25;7.30;99.90
42743;DHT22;28397;44.552;-0.848;2023-03-21T00:05:52;7.30;99.90
42743;DHT22;28397;44.552;-0.848;2023-03-21T00:08:19;7.30;99.90
42743;DHT22;28397;44.552;-0.848;2023-03-21T00:10:45;7.40;99.90
42743;DHT22;28397;44.552;-0.848;2023-03-21T00:13:14;7.30;99.90
42743;DHT22;28397;44.552;-0.848;2023-03-21T00:15:41;7.20;99.90
42743;DHT22;28397;44.552;-0.848;2023-03-21T00:18:22;7.10;99.90
42743;DHT22;28397;44.552;-0.848;2023-03-21T00:20:56;7.00;99.90
42743;DHT22;28397;44.552;-0.848;2023-03-21T00:23:27;7.00;99.90
42743;DHT22;28397;44.552;-0.848;2023-03-21T00:25:53;7.00;99.90
42743;DHT22;28397;44.552;-0.848;2023-03-21T00:28:20;6.90;99.90
42743;DHT22;28397;44.552;-0.848;2023-03-21T00:30:46;6.80;99.90
42743;DHT22;28397;44.552;-0.848;2023-03-21T00:33:11;6.80;99.90
42743;DHT22;28397;44.552;-0.848;2023-03-21T00:35:39;6.90;99.90
42743;DHT22;28397;44.552;-0.848;2023-03-21T00:38:08;6.80;99.90
42743;DHT22;28397;44.552;-0.848;2023-03-21T00:40:34;6.70;99.90
42743;DHT22;28397;44.552;-0.848;2023-03-21T00:43:00;6.50;99.90
42743;DHT22;28397;44.552;-0.848;2023-03-21T00:45:26;6.40;99.90
42743;DHT22;28397;44.552;-0.848;2023-03-21T00:47:52;6.50;99.90
42743;DHT22;28397;44.552;-0.848;2023-03-21T00:50:17;6.60;99.90
42743;DHT22;28397;44.552;-0.848;2023-03-21T00:52:43;6.50;99.90
42743;DHT22;28397;44.552;-0.848;2023-03-21T00:55:13;6.30;99.90
42743;DHT22;28397;44.552;-0.848;2023-03-21T00:57:39;6.20;99.90
42743;DHT22;28397;44.552;-0.848;2023-03-21T01:00:06;6.20;99.90
42743;DHT22;28397;44.552;-0.848;2023-03-21T01:02:35;6.40;99.90
42743;DHT22;28397;44.552;-0.848;2023-03-21T01:05:03;6.30;99.90
42743;DHT22;28397;44.552;-0.848;2023-03-21T01:07:29;6.30;99.90
42743;DHT22;28397;44.552;-0.848;2023-03-21T01:09:55;6.00;99.90
42743;DHT22;28397;44.552;-0.848;2023-03-21T01:12:20;6.20;99.90
42743;DHT22;28397;44.552;-0.848;2023-03-21T01:14:46;6.00;99.90
42743;DHT22;28397;44.552;-0.848;2023-03-21T01:17:12;6.10;99.90
42743;DHT22;28397;44.552;-0.848;2023-03-21T01:19:37;6.10;99.90
42743;DHT22;28397;44.552;-0.848;2023-03-21T01:22:03;6.10;99.90
42743;DHT22;28397;44.552;-0.848;2023-03-21T01:24:29;6.10;99.90
42743;DHT22;28397;44.552;-0.848;2023-03-21T01:26:55;6.00;99.90
42743;DHT22;28397;44.552;-0.848;2023-03-21T01:29:21;6.00;99.90
42743;DHT22;28397;44.552;-0.848;2023-03-21T01:31:47;5.90;99.90
42743;DHT22;28397;44.552;-0.848;2023-03-21T01:34:12;5.80;99.90
42743;DHT22;28397;44.552;-0.848;2023-03-21T01:36:38;5.80;99.90
42743;DHT22;28397;44.552;-0.848;2023-03-21T01:39:05;5.80;99.90
42743;DHT22;28397;44.552;-0.848;2023-03-21T01:41:37;6.10;99.90
42743;DHT22;28397;44.552;-0.848;2023-03-21T01:44:03;5.90;99.90
42743;DHT22;28397;44.552;-0.848;2023-03-21T01:46:44;5.90;99.90
42743;DHT22;28397;44.552;-0.848;2023-03-21T01:49:28;5.90;99.90
42743;DHT22;28397;44.552;-0.848;2023-03-21T01:52:08;5.80;99.90
42743;DHT22;28397;44.552;-0.848;2023-03-21T01:54:37;5.70;99.90
42743;DHT22;28397;44.552;-0.848;2023-03-21T01:57:09;5.70;99.90
42743;DHT22;28397;44.552;-0.848;2023-03-21T01:59:54;5.60;99.90
42743;DHT22;28397;44.552;-0.848;2023-03-21T02:02:23;5.50;99.90
42743;DHT22;28397;44.552;-0.848;2023-03-21T02:04:51;5.60;99.90
42743;DHT22;28397;44.552;-0.848;2023-03-21T02:07:32;5.60;99.90
42743;DHT22;28397;44.552;-0.848;2023-03-21T02:10:04;5.60;99.90
42743;DHT22;28397;44.552;-0.848;2023-03-21T02:12:32;5.60;99.90
42743;DHT22;28397;44.552;-0.848;2023-03-21T02:14:58;5.50;99.90
42743;DHT22;28397;44.552;-0.848;2023-03-21T02:17:42;5.50;99.90
42743;DHT22;28397;44.552;-0.848;2023-03-21T02:22:49;5.40;99.90
42743;DHT22;28397;44.552;-0.848;2023-03-21T02:28:27;5.60;99.90
42743;DHT22;28397;44.552;-0.848;2023-03-21T02:42:26;5.70;99.90
42743;DHT22;28397;44.552;-0.848;2023-03-21T02:47:24;5.50;99.90
42743;DHT22;28397;44.552;-0.848;2023-03-21T02:50:03;5.40;99.90
42743;DHT22;28397;44.552;-0.848;2023-03-21T02:52:33;5.50;99.90
42743;DHT22;28397;44.552;-0.848;2023-03-21T02:55:01;5.60;99.90
42743;DHT22;28397;44.552;-0.848;2023-03-21T02:57:30;5.50;99.90
42743;DHT22;28397;44.552;-0.848;2023-03-21T02:59:57;5.50;99.90
42743;DHT22;28397;44.552;-0.848;2023-03-21T03:02:26;5.20;99.90
42743;DHT22;28397;44.552;-0.848;2023-03-21T03:04:52;5.30;99.90
42743;DHT22;28397;44.552;-0.848;2023-03-21T03:10:29;5.30;99.90
42743;DHT22;28397;44.552;-0.848;2023-03-21T03:13:13;5.30;99.90
42743;DHT22;28397;44.552;-0.848;2023-03-21T03:23:42;5.10;99.90
42743;DHT22;28397;44.552;-0.848;2023-03-21T03:26:16;5.10;99.90
42743;DHT22;28397;44.552;-0.848;2023-03-21T03:28:50;5.10;99.90
42743;DHT22;28397;44.552;-0.848;2023-03-21T03:31:18;5.00;99.90
42743;DHT22;28397;44.552;-0.848;2023-03-21T03:33:48;5.10;99.90
42743;DHT22;28397;44.552;-0.848;2023-03-21T03:36:19;5.00;99.90
42743;DHT22;28397;44.552;-0.848;2023-03-21T03:38:48;5.00;99.90
42743;DHT22;28397;44.552;-0.848;2023-03-21T03:41:21;4.90;99.90
42743;DHT22;28397;44.552;-0.848;2023-03-21T03:43:56;4.90;99.90
42743;DHT22;28397;44.552;-0.848;2023-03-21T03:46:35;4.90;99.90
42743;DHT22;28397;44.552;-0.848;2023-03-21T03:49:08;5.00;99.90
42743;DHT22;28397;44.552;-0.848;2023-03-21T03:54:21;4.80;99.90
42743;DHT22;28397;44.552;-0.848;2023-03-21T03:56:49;4.90;99.90
42743;DHT22;28397;44.552;-0.848;2023-03-21T03:59:16;4.90;99.90
42743;DHT22;28397;44.552;-0.848;2023-03-21T04:01:44;5.00;99.90
42743;DHT22;28397;44.552;-0.848;2023-03-21T04:04:10;5.00;99.90
42743;DHT22;28397;44.552;-0.848;2023-03-21T04:06:36;4.90;99.90
42743;DHT22;28397;44.552;-0.848;2023-03-21T04:09:03;5.00;99.90
42743;DHT22;28397;44.552;-0.848;2023-03-21T04:11:30;4.90;99.90
42743;DHT22;28397;44.552;-0.848;2023-03-21T04:13:55;4.80;99.90
42743;DHT22;28397;44.552;-0.848;2023-03-21T04:16:21;4.80;99.90
42743;DHT22;28397;44.552;-0.848;2023-03-21T04:18:47;4.80;99.90
42743;DHT22;28397;44.552;-0.848;2023-03-21T04:21:13;4.80;99.90
42743;DHT22;28397;44.552;-0.848;2023-03-21T04:23:40;4.70;99.90
42743;DHT22;28397;44.552;-0.848;2023-03-21T04:26:06;4.80;99.90
42743;DHT22;28397;44.552;-0.848;2023-03-21T04:28:32;4.70;99.90
42743;DHT22;28397;44.552;-0.848;2023-03-21T04:31:00;4.70;99.90
42743;DHT22;28397;44.552;-0.848;2023-03-21T04:33:26;4.70;99.90
42743;DHT22;28397;44.552;-0.848;2023-03-21T04:35:52;4.80;99.90
42743;DHT22;28397;44.552;-0.848;2023-03-21T04:38:22;4.70;99.90
42743;DHT22;28397;44.552;-0.848;2023-03-21T04:40:48;4.80;99.90
42743;DHT22;28397;44.552;-0.848;2023-03-21T04:43:13;4.60;99.90
42743;DHT22;28397;44.552;-0.848;2023-03-21T04:45:39;4.60;99.90
42743;DHT22;28397;44.552;-0.848;2023-03-21T04:48:05;4.70;99.90
42743;DHT22;28397;44.552;-0.848;2023-03-21T04:50:31;4.80;99.90
42743;DHT22;28397;44.552;-0.848;2023-03-21T04:52:57;4.90;99.90
42743;DHT22;28397;44.552;-0.848;2023-03-21T04:55:22;5.00;99.90
42743;DHT22;28397;44.552;-0.848;2023-03-21T04:57:51;5.20;99.90
42743;DHT22;28397;44.552;-0.848;2023-03-21T05:00:17;5.20;99.90
42743;DHT22;28397;44.552;-0.848;2023-03-21T05:02:43;5.30;99.90
42743;DHT22;28397;44.552;-0.848;2023-03-21T05:05:09;5.40;99.90
42743;DHT22;28397;44.552;-0.848;2023-03-21T05:07:40;5.50;99.90
42743;DHT22;28397;44.552;-0.848;2023-03-21T05:10:08;5.60;99.90
42743;DHT22;28397;44.552;-0.848;2023-03-21T05:12:34;5.50;99.90
42743;DHT22;28397;44.552;-0.848;2023-03-21T05:15:00;5.60;99.90
42743;DHT22;28397;44.552;-0.848;2023-03-21T05:17:26;5.60;99.90
42743;DHT22;28397;44.552;-0.848;2023-03-21T05:19:53;5.70;99.90
42743;DHT22;28397;44.552;-0.848;2023-03-21T05:22:21;5.80;99.90
42743;DHT22;28397;44.552;-0.848;2023-03-21T05:24:49;5.80;99.90
42743;DHT22;28397;44.552;-0.848;2023-03-21T05:27:19;5.80;99.90
42743;DHT22;28397;44.552;-0.848;2023-03-21T05:30:02;5.80;99.90
42743;DHT22;28397;44.552;-0.848;2023-03-21T05:32:28;5.60;99.90
42743;DHT22;28397;44.552;-0.848;2023-03-21T05:34:54;5.80;99.90
42743;DHT22;28397;44.552;-0.848;2023-03-21T05:37:20;5.90;99.90
42743;DHT22;28397;44.552;-0.848;2023-03-21T05:39:46;5.80;99.90
42743;DHT22;28397;44.552;-0.848;2023-03-21T05:42:12;5.90;99.90
42743;DHT22;28397;44.552;-0.848;2023-03-21T05:44:37;6.00;99.90
42743;DHT22;28397;44.552;-0.848;2023-03-21T05:47:05;6.00;99.90
42743;DHT22;28397;44.552;-0.848;2023-03-21T05:49:31;6.00;99.90
42743;DHT22;28397;44.552;-0.848;2023-03-21T05:51:57;6.20;99.90
42743;DHT22;28397;44.552;-0.848;2023-03-21T05:54:23;6.20;99.90
42743;DHT22;28397;44.552;-0.848;2023-03-21T05:56:49;6.20;99.90
42743;DHT22;28397;44.552;-0.848;2023-03-21T05:59:14;6.20;99.90
42743;DHT22;28397;44.552;-0.848;2023-03-21T06:01:41;6.20;99.90
42743;DHT22;28397;44.552;-0.848;2023-03-21T06:04:07;6.10;99.90
42743;DHT22;28397;44.552;-0.848;2023-03-21T06:06:33;6.10;99.90
42743;DHT22;28397;44.552;-0.848;2023-03-21T06:08:58;6.30;99.90
42743;DHT22;28397;44.552;-0.848;2023-03-21T06:11:29;6.20;99.90
42743;DHT22;28397;44.552;-0.848;2023-03-21T06:13:55;6.20;99.90
42743;DHT22;28397;44.552;-0.848;2023-03-21T06:16:21;6.20;99.90
42743;DHT22;28397;44.552;-0.848;2023-03-21T06:18:47;6.20;99.90
42743;DHT22;28397;44.552;-0.848;2023-03-21T06:21:13;6.20;99.90
42743;DHT22;28397;44.552;-0.848;2023-03-21T06:23:39;6.20;99.90
42743;DHT22;28397;44.552;-0.848;2023-03-21T06:26:05;6.10;99.90
42743;DHT22;28397;44.552;-0.848;2023-03-21T06:28:31;6.10;99.90
42743;DHT22;28397;44.552;-0.848;2023-03-21T06:30:57;6.10;99.90
42743;DHT22;28397;44.552;-0.848;2023-03-21T06:33:23;6.10;99.90
42743;DHT22;28397;44.552;-0.848;2023-03-21T06:35:53;6.20;99.90
42743;DHT22;28397;44.552;-0.848;2023-03-21T06:38:19;6.30;99.90
42743;DHT22;28397;44.552;-0.848;2023-03-21T06:40:48;6.40;99.90
42743;DHT22;28397;44.552;-0.848;2023-03-21T06:43:14;6.40;99.90
42743;DHT22;28397;44.552;-0.848;2023-03-21T06:45:43;6.50;99.90
42743;DHT22;28397;44.552;-0.848;2023-03-21T06:48:09;6.50;99.90
42743;DHT22;28397;44.552;-0.848;2023-03-21T06:50:35;6.70;99.90
42743;DHT22;28397;44.552;-0.848;2023-03-21T06:53:01;7.00;99.90
42743;DHT22;28397;44.552;-0.848;2023-03-21T06:55:27;7.10;99.90
42743;DHT22;28397;44.552;-0.848;2023-03-21T06:57:55;7.30;99.90
42743;DHT22;28397;44.552;-0.848;2023-03-21T07:00:22;7.50;99.90
42743;DHT22;28397;44.552;-0.848;2023-03-21T07:02:48;7.90;99.90
42743;DHT22;28397;44.552;-0.848;2023-03-21T07:05:15;8.40;99.90
42743;DHT22;28397;44.552;-0.848;2023-03-21T07:07:41;8.50;99.90
42743;DHT22;28397;44.552;-0.848;2023-03-21T07:10:07;9.10;99.90
42743;DHT22;28397;44.552;-0.848;2023-03-21T07:12:33;9.60;99.90
42743;DHT22;28397;44.552;-0.848;2023-03-21T07:15:01;10.10;99.90
42743;DHT22;28397;44.552;-0.848;2023-03-21T07:17:29;10.60;99.90
42743;DHT22;28397;44.552;-0.848;2023-03-21T07:19:54;11.20;99.90
42743;DHT22;28397;44.552;-0.848;2023-03-21T07:22:20;12.00;99.90
42743;DHT22;28397;44.552;-0.848;2023-03-21T07:24:46;11.90;99.90
42743;DHT22;28397;44.552;-0.848;2023-03-21T07:27:17;12.30;99.90
42743;DHT22;28397;44.552;-0.848;2023-03-21T07:29:42;11.90;99.90
42743;DHT22;28397;44.552;-0.848;2023-03-21T07:32:09;11.70;99.90
42743;DHT22;28397;44.552;-0.848;2023-03-21T07:34:36;12.00;99.90
42743;DHT22;28397;44.552;-0.848;2023-03-21T07:37:03;12.40;99.90
42743;DHT22;28397;44.552;-0.848;2023-03-21T07:39:28;13.00;99.90
42743;DHT22;28397;44.552;-0.848;2023-03-21T07:41:55;13.40;99.90
42743;DHT22;28397;44.552;-0.848;2023-03-21T07:44:22;13.40;99.90
42743;DHT22;28397;44.552;-0.848;2023-03-21T07:46:47;14.50;99.90
42743;DHT22;28397;44.552;-0.848;2023-03-21T07:49:13;15.80;99.90
42743;DHT22;28397;44.552;-0.848;2023-03-21T07:51:39;17.30;99.90
42743;DHT22;28397;44.552;-0.848;2023-03-21T07:54:05;17.30;99.90
42743;DHT22;28397;44.552;-0.848;2023-03-21T07:56:31;16.30;99.90
42743;DHT22;28397;44.552;-0.848;2023-03-21T07:58:57;15.20;99.90
42743;DHT22;28397;44.552;-0.848;2023-03-21T08:01:24;16.70;99.90
42743;DHT22;28397;44.552;-0.848;2023-03-21T08:03:50;15.90;99.90
42743;DHT22;28397;44.552;-0.848;2023-03-21T08:06:19;15.00;99.90
42743;DHT22;28397;44.552;-0.848;2023-03-21T08:08:45;14.90;99.90
42743;DHT22;28397;44.552;-0.848;2023-03-21T08:11:11;14.70;99.90
42743;DHT22;28397;44.552;-0.848;2023-03-21T08:13:37;14.40;99.90
42743;DHT22;28397;44.552;-0.848;2023-03-21T08:16:03;14.70;99.90
42743;DHT22;28397;44.552;-0.848;2023-03-21T08:18:29;14.60;99.90
42743;DHT22;28397;44.552;-0.848;2023-03-21T08:20:56;15.50;99.90
42743;DHT22;28397;44.552;-0.848;2023-03-21T08:23:23;16.40;99.90
42743;DHT22;28397;44.552;-0.848;2023-03-21T08:25:55;16.10;99.90
42743;DHT22;28397;44.552;-0.848;2023-03-21T08:28:22;15.70;99.90
42743;DHT22;28397;44.552;-0.848;2023-03-21T08:30:48;14.90;99.90
42743;DHT22;28397;44.552;-0.848;2023-03-21T08:33:15;15.60;99.90
42743;DHT22;28397;44.552;-0.848;2023-03-21T08:35:43;15.70;99.90
42743;DHT22;28397;44.552;-0.848;2023-03-21T08:38:09;16.00;99.90
42743;DHT22;28397;44.552;-0.848;2023-03-21T08:40:35;16.70;99.90
42743;DHT22;28397;44.552;-0.848;2023-03-21T08:43:01;17.30;99.90
42743;DHT22;28397;44.552;-0.848;2023-03-21T08:45:28;17.30;99.90
42743;DHT22;28397;44.552;-0.848;2023-03-21T08:47:54;17.10;99.90
42743;DHT22;28397;44.552;-0.848;2023-03-21T08:50:23;17.60;99.90
42743;DHT22;28397;44.552;-0.848;2023-03-21T08:52:49;17.30;99.90
42743;DHT22;28397;44.552;-0.848;2023-03-21T08:55:17;17.70;99.90
42743;DHT22;28397;44.552;-0.848;2023-03-21T08:57:43;19.00;99.90
42743;DHT22;28397;44.552;-0.848;2023-03-21T09:00:13;19.90;99.90
42743;DHT22;28397;44.552;-0.848;2023-03-21T09:02:40;22.30;99.90
42743;DHT22;28397;44.552;-0.848;2023-03-21T09:05:06;24.70;99.90
42743;DHT22;28397;44.552;-0.848;2023-03-21T09:07:33;24.80;99.90
42743;DHT22;28397;44.552;-0.848;2023-03-21T09:10:01;24.00;99.90
42743;DHT22;28397;44.552;-0.848;2023-03-21T09:12:27;25.10;99.90
42743;DHT22;28397;44.552;-0.848;2023-03-21T09:14:53;24.10;99.90
42743;DHT22;28397;44.552;-0.848;2023-03-21T09:17:19;22.80;99.90
42743;DHT22;28397;44.552;-0.848;2023-03-21T09:19:45;21.70;99.90
42743;DHT22;28397;44.552;-0.848;2023-03-21T09:22:12;20.70;99.90
42743;DHT22;28397;44.552;-0.848;2023-03-21T09:24:45;20.30;99.90
42743;DHT22;28397;44.552;-0.848;2023-03-21T09:27:12;20.90;99.90
42743;DHT22;28397;44.552;-0.848;2023-03-21T09:29:39;20.90;99.90
42743;DHT22;28397;44.552;-0.848;2023-03-21T09:32:08;21.80;99.90
42743;DHT22;28397;44.552;-0.848;2023-03-21T09:34:34;21.00;99.90
42743;DHT22;28397;44.552;-0.848;2023-03-21T09:37:02;20.40;99.90
42743;DHT22;28397;44.552;-0.848;2023-03-21T09:39:28;20.30;99.90
42743;DHT22;28397;44.552;-0.848;2023-03-21T09:42:06;20.90;99.90
42743;DHT22;28397;44.552;-0.848;2023-03-21T09:47:28;20.90;99.90
42743;DHT22;28397;44.552;-0.848;2023-03-21T09:50:11;20.20;99.90
42743;DHT22;28397;44.552;-0.848;2023-03-21T09:55:17;19.20;99.90
42743;DHT22;28397;44.552;-0.848;2023-03-21T09:57:56;19.30;99.90
42743;DHT22;28397;44.552;-0.848;2023-03-21T10:00:29;19.40;99.90
42743;DHT22;28397;44.552;-0.848;2023-03-21T10:03:01;18.40;99.90
42743;DHT22;28397;44.552;-0.848;2023-03-21T10:05:32;17.50;99.90
42743;DHT22;28397;44.552;-0.848;2023-03-21T10:11:18;17.20;99.90
42743;DHT22;28397;44.552;-0.848;2023-03-21T10:14:09;18.00;99.90
42743;DHT22;28397;44.552;-0.848;2023-03-21T10:16:44;19.00;99.90
42743;DHT22;28397;44.552;-0.848;2023-03-21T10:19:14;20.20;99.90
42743;DHT22;28397;44.552;-0.848;2023-03-21T10:21:41;20.40;99.90
42743;DHT22;28397;44.552;-0.848;2023-03-21T10:24:18;19.60;99.90
42743;DHT22;28397;44.552;-0.848;2023-03-21T10:26:45;20.30;99.90
42743;DHT22;28397;44.552;-0.848;2023-03-21T10:29:15;19.70;99.90
42743;DHT22;28397;44.552;-0.848;2023-03-21T10:31:43;19.90;99.90
42743;DHT22;28397;44.552;-0.848;2023-03-21T10:34:17;19.80;99.90
42743;DHT22;28397;44.552;-0.848;2023-03-21T10:36:43;19.40;99.90
42743;DHT22;28397;44.552;-0.848;2023-03-21T10:39:41;19.60;99.90
42743;DHT22;28397;44.552;-0.848;2023-03-21T10:42:28;20.00;99.90
42743;DHT22;28397;44.552;-0.848;2023-03-21T10:44:56;20.00;99.90
42743;DHT22;28397;44.552;-0.848;2023-03-21T10:47:40;20.40;99.90
42743;DHT22;28397;44.552;-0.848;2023-03-21T10:50:10;20.20;99.90
42743;DHT22;28397;44.552;-0.848;2023-03-21T10:52:42;19.30;99.90
42743;DHT22;28397;44.552;-0.848;2023-03-21T10:55:29;19.30;99.90
42743;DHT22;28397;44.552;-0.848;2023-03-21T10:58:02;18.90;99.90
42743;DHT22;28397;44.552;-0.848;2023-03-21T11:00:40;18.30;99.90
42743;DHT22;28397;44.552;-0.848;2023-03-21T11:03:34;18.30;99.90
42743;DHT22;28397;44.552;-0.848;2023-03-21T11:08:49;17.50;99.90
42743;DHT22;28397;44.552;-0.848;2023-03-21T11:11:37;18.00;99.90
42743;DHT22;28397;44.552;-0.848;2023-03-21T11:14:06;18.00;99.90
42743;DHT22;28397;44.552;-0.848;2023-03-21T11:16:38;18.80;99.90
42743;DHT22;28397;44.552;-0.848;2023-03-21T11:19:32;18.70;99.90
42743;DHT22;28397;44.552;-0.848;2023-03-21T11:22:05;18.70;99.90
42743;DHT22;28397;44.552;-0.848;2023-03-21T11:24:31;18.80;99.90
42743;DHT22;28397;44.552;-0.848;2023-03-21T11:26:58;18.90;99.90
42743;DHT22;28397;44.552;-0.848;2023-03-21T11:31:57;18.00;99.90
42743;DHT22;28397;44.552;-0.848;2023-03-21T11:37:26;18.40;99.90
42743;DHT22;28397;44.552;-0.848;2023-03-21T11:40:12;18.10;99.90
42743;DHT22;28397;44.552;-0.848;2023-03-21T11:42:44;18.10;99.90
42743;DHT22;28397;44.552;-0.848;2023-03-21T11:45:16;17.20;99.90
42743;DHT22;28397;44.552;-0.848;2023-03-21T11:47:43;17.80;99.90
42743;DHT22;28397;44.552;-0.848;2023-03-21T11:58:21;18.20;99.90
42743;DHT22;28397;44.552;-0.848;2023-03-21T12:01:02;18.20;99.90
42743;DHT22;28397;44.552;-0.848;2023-03-21T12:09:12;17.70;99.90
42743;DHT22;28397;44.552;-0.848;2023-03-21T12:17:35;17.70;99.90
42743;DHT22;28397;44.552;-0.848;2023-03-21T12:22:46;17.40;99.90
42743;DHT22;28397;44.552;-0.848;2023-03-21T12:26:15;17.60;99.90
42743;DHT22;28397;44.552;-0.848;2023-03-21T12:44:58;18.10;99.90
42743;DHT22;28397;44.552;-0.848;2023-03-21T12:47:28;18.40;99.90
42743;DHT22;28397;44.552;-0.848;2023-03-21T12:52:45;18.90;99.90
42743;DHT22;28397;44.552;-0.848;2023-03-21T12:55:20;18.70;99.90
42743;DHT22;28397;44.552;-0.848;2023-03-21T12:57:51;18.80;99.90
42743;DHT22;28397;44.552;-0.848;2023-03-21T13:00:36;18.90;99.90
42743;DHT22;28397;44.552;-0.848;2023-03-21T13:03:23;18.80;99.90
42743;DHT22;28397;44.552;-0.848;2023-03-21T13:05:54;19.00;99.90
42743;DHT22;28397;44.552;-0.848;2023-03-21T13:08:29;18.70;99.90
42743;DHT22;28397;44.552;-0.848;2023-03-21T13:10:56;19.30;99.90
42743;DHT22;28397;44.552;-0.848;2023-03-21T13:14:00;19.00;99.90
42743;DHT22;28397;44.552;-0.848;2023-03-21T13:19:27;18.60;99.90
42743;DHT22;28397;44.552;-0.848;2023-03-21T13:22:16;19.30;99.90
42743;DHT22;28397;44.552;-0.848;2023-03-21T13:25:18;19.00;99.90
42743;DHT22;28397;44.552;-0.848;2023-03-21T13:27:43;19.20;99.90
42743;DHT22;28397;44.552;-0.848;2023-03-21T13:32:45;19.10;99.90
42743;DHT22;28397;44.552;-0.848;2023-03-21T13:38:24;18.60;99.90
42743;DHT22;28397;44.552;-0.848;2023-03-21T13:41:12;19.20;99.90
42743;DHT22;28397;44.552;-0.848;2023-03-21T13:43:43;19.20;99.90
42743;DHT22;28397;44.552;-0.848;2023-03-21T13:46:13;19.10;99.90
42743;DHT22;28397;44.552;-0.848;2023-03-21T13:51:10;18.30;99.90
42743;DHT22;28397;44.552;-0.848;2023-03-21T13:53:40;18.30;99.90
42743;DHT22;28397;44.552;-0.848;2023-03-21T13:58:50;18.90;99.90
42743;DHT22;28397;44.552;-0.848;2023-03-21T14:04:10;19.50;99.90
42743;DHT22;28397;44.552;-0.848;2023-03-21T14:09:24;20.00;99.90
42743;DHT22;28397;44.552;-0.848;2023-03-21T14:11:53;20.20;99.90
42743;DHT22;28397;44.552;-0.848;2023-03-21T14:14:22;20.00;99.90
42743;DHT22;28397;44.552;-0.848;2023-03-21T14:16:51;20.10;99.90
42743;DHT22;28397;44.552;-0.848;2023-03-21T14:19:18;20.10;99.90
42743;DHT22;28397;44.552;-0.848;2023-03-21T14:21:50;19.60;99.90
42743;DHT22;28397;44.552;-0.848;2023-03-21T14:24:19;19.60;99.90
42743;DHT22;28397;44.552;-0.848;2023-03-21T14:26:48;18.60;99.90
42743;DHT22;28397;44.552;-0.848;2023-03-21T14:29:23;19.10;99.90
42743;DHT22;28397;44.552;-0.848;2023-03-21T14:31:49;18.80;99.90
42743;DHT22;28397;44.552;-0.848;2023-03-21T14:34:16;18.90;99.90
42743;DHT22;28397;44.552;-0.848;2023-03-21T14:36:43;18.60;99.90
42743;DHT22;28397;44.552;-0.848;2023-03-21T14:39:19;18.80;99.90
42743;DHT22;28397;44.552;-0.848;2023-03-21T14:41:59;18.80;99.90
42743;DHT22;28397;44.552;-0.848;2023-03-21T14:44:38;18.30;99.90
42743;DHT22;28397;44.552;-0.848;2023-03-21T14:47:06;18.30;99.90
42743;DHT22;28397;44.552;-0.848;2023-03-21T14:49:36;18.10;99.90
42743;DHT22;28397;44.552;-0.848;2023-03-21T14:54:51;18.50;99.90
42743;DHT22;28397;44.552;-0.848;2023-03-21T14:57:26;17.60;99.90
42743;DHT22;28397;44.552;-0.848;2023-03-21T14:59:56;17.10;99.90
42743;DHT22;28397;44.552;-0.848;2023-03-21T15:02:38;16.90;99.90
42743;DHT22;28397;44.552;-0.848;2023-03-21T15:05:12;17.40;99.90
42743;DHT22;28397;44.552;-0.848;2023-03-21T15:07:40;17.40;99.90
42743;DHT22;28397;44.552;-0.848;2023-03-21T15:10:15;17.80;99.90
42743;DHT22;28397;44.552;-0.848;2023-03-21T15:12:52;17.60;99.90
42743;DHT22;28397;44.552;-0.848;2023-03-21T15:15:19;17.70;99.90
42743;DHT22;28397;44.552;-0.848;2023-03-21T15:17:46;17.80;99.90
42743;DHT22;28397;44.552;-0.848;2023-03-21T15:20:15;17.90;99.90
42743;DHT22;28397;44.552;-0.848;2023-03-21T15:22:51;17.60;99.90
42743;DHT22;28397;44.552;-0.848;2023-03-21T15:25:22;17.80;99.90
42743;DHT22;28397;44.552;-0.848;2023-03-21T15:27:50;17.80;99.90
42743;DHT22;28397;44.552;-0.848;2023-03-21T15:30:36;18.00;99.90
42743;DHT22;28397;44.552;-0.848;2023-03-21T15:33:07;17.90;99.90
42743;DHT22;28397;44.552;-0.848;2023-03-21T15:35:39;17.80;99.90
42743;DHT22;28397;44.552;-0.848;2023-03-21T15:38:18;18.50;99.90
42743;DHT22;28397;44.552;-0.848;2023-03-21T15:40:45;18.10;99.90
42743;DHT22;28397;44.552;-0.848;2023-03-21T15:43:18;18.40;99.90
42743;DHT22;28397;44.552;-0.848;2023-03-21T15:45:45;18.50;99.90
42743;DHT22;28397;44.552;-0.848;2023-03-21T15:48:12;18.40;99.90
42743;DHT22;28397;44.552;-0.848;2023-03-21T15:50:41;18.60;99.90
42743;DHT22;28397;44.552;-0.848;2023-03-21T15:53:15;18.20;99.90
42743;DHT22;28397;44.552;-0.848;2023-03-21T15:56:03;17.70;99.90
42743;DHT22;28397;44.552;-0.848;2023-03-21T15:58:35;18.10;99.90
42743;DHT22;28397;44.552;-0.848;2023-03-21T16:01:19;17.20;99.90
42743;DHT22;28397;44.552;-0.848;2023-03-21T16:03:48;17.90;99.90
42743;DHT22;28397;44.552;-0.848;2023-03-21T16:06:21;17.80;99.90
42743;DHT22;28397;44.552;-0.848;2023-03-21T16:09:12;17.70;99.90
42743;DHT22;28397;44.552;-0.848;2023-03-21T16:11:53;17.80;99.90
42743;DHT22;28397;44.552;-0.848;2023-03-21T16:14:20;17.60;99.90
42743;DHT22;28397;44.552;-0.848;2023-03-21T16:16:46;17.50;99.90
42743;DHT22;28397;44.552;-0.848;2023-03-21T16:19:15;17.70;99.90
42743;DHT22;28397;44.552;-0.848;2023-03-21T16:21:41;17.20;99.90
42743;DHT22;28397;44.552;-0.848;2023-03-21T16:24:08;17.50;99.90
42743;DHT22;28397;44.552;-0.848;2023-03-21T16:26:53;17.60;99.90
42743;DHT22;28397;44.552;-0.848;2023-03-21T16:29:19;17.40;99.90
42743;DHT22;28397;44.552;-0.848;2023-03-21T16:31:46;17.60;99.90
42743;DHT22;28397;44.552;-0.848;2023-03-21T16:34:12;17.60;99.90
42743;DHT22;28397;44.552;-0.848;2023-03-21T16:36:39;17.60;99.90
42743;DHT22;28397;44.552;-0.848;2023-03-21T16:39:17;17.30;99.90
42743;DHT22;28397;44.552;-0.848;2023-03-21T16:41:43;17.40;99.90
42743;DHT22;28397;44.552;-0.848;2023-03-21T16:44:09;17.20;99.90
42743;DHT22;28397;44.552;-0.848;2023-03-21T16:46:35;17.00;99.90
42743;DHT22;28397;44.552;-0.848;2023-03-21T16:49:01;16.90;99.90
42743;DHT22;28397;44.552;-0.848;2023-03-21T16:51:34;16.60;99.90
42743;DHT22;28397;44.552;-0.848;2023-03-21T16:54:01;16.80;99.90
42743;DHT22;28397;44.552;-0.848;2023-03-21T16:56:31;16.50;99.90
42743;DHT22;28397;44.552;-0.848;2023-03-21T16:58:58;16.60;99.90
42743;DHT22;28397;44.552;-0.848;2023-03-21T17:01:24;16.20;99.90
42743;DHT22;28397;44.552;-0.848;2023-03-21T17:03:55;16.30;99.90
42743;DHT22;28397;44.552;-0.848;2023-03-21T17:06:27;16.10;99.90
42743;DHT22;28397;44.552;-0.848;2023-03-21T17:08:54;15.90;99.90
42743;DHT22;28397;44.552;-0.848;2023-03-21T17:11:22;16.20;99.90
42743;DHT22;28397;44.552;-0.848;2023-03-21T17:13:50;15.80;99.90
42743;DHT22;28397;44.552;-0.848;2023-03-21T17:16:18;16.10;99.90
42743;DHT22;28397;44.552;-0.848;2023-03-21T17:18:45;15.80;99.90
42743;DHT22;28397;44.552;-0.848;2023-03-21T17:21:12;15.90;99.90
42743;DHT22;28397;44.552;-0.848;2023-03-21T17:23:38;16.10;99.90
42743;DHT22;28397;44.552;-0.848;2023-03-21T17:26:04;15.70;99.90
42743;DHT22;28397;44.552;-0.848;2023-03-21T17:28:30;15.70;99.90
42743;DHT22;28397;44.552;-0.848;2023-03-21T17:30:56;15.40;99.90
42743;DHT22;28397;44.552;-0.848;2023-03-21T17:33:22;15.50;99.90